createdAt,value
2023-03-28T00:26:54.084Z,4.90
2023-03-28T06:00:20.797Z,7.80
2023-03-28T06:03:28.123Z,8.75
2023-03-28T06:06:30.850Z,8.52
2023-03-28T06:09:35.076Z,9.63
2023-03-28T06:12:37.443Z,8.52
2023-03-28T06:15:38.941Z,8.55
2023-03-28T06:18:40.868Z,9.07
2023-03-28T06:21:42.318Z,8.23
2023-03-28T06:24:44.457Z,7.95
2023-03-28T06:27:46.147Z,7.93
2023-03-28T06:30:49.257Z,7.22
2023-03-28T06:33:50.778Z,8.48
2023-03-28T06:39:57.367Z,10.43
2023-03-28T06:42:58.919Z,9.73
2023-03-28T06:46:16.805Z,9.18
2023-03-28T06:49:19.778Z,7.67
2023-03-28T06:52:39.428Z,8.40
2023-03-28T06:55:43.451Z,7.13
2023-03-28T06:58:45.292Z,7.88
2023-03-28T07:04:56.063Z,6.90
2023-03-28T07:07:57.702Z,9.07
2023-03-28T07:10:59.599Z,12.15
2023-03-28T07:14:01.660Z,8.77
2023-03-28T07:17:03.642Z,7.22
2023-03-28T07:20:07.019Z,8.15
2023-03-28T07:23:08.627Z,7.30
2023-03-28T07:26:11.796Z,7.35
2023-03-28T07:29:13.725Z,7.43
2023-03-28T07:32:16.048Z,7.28
2023-03-28T07:35:19.604Z,8.18
2023-03-28T07:38:24.246Z,6.93
2023-03-28T07:41:29.332Z,6.57
2023-03-28T07:44:30.790Z,7.50
2023-03-28T07:47:32.586Z,7.13
2023-03-28T07:50:35.000Z,6.55
2023-03-28T07:53:39.867Z,6.07
2023-03-28T07:56:41.474Z,6.22
2023-03-28T07:59:52.547Z,6.30
2023-03-28T08:02:54.262Z,6.00
2023-03-28T08:05:55.943Z,6.00
2023-03-28T08:08:57.925Z,5.45
2023-03-28T08:12:29.870Z,5.40
2023-03-28T08:15:31.500Z,6.28
2023-03-28T08:18:33.067Z,5.32
2023-03-28T08:21:35.335Z,6.13
2023-03-28T08:24:37.505Z,4.85
2023-03-28T08:27:46.092Z,4.90
2023-03-28T08:30:47.564Z,4.18
2023-03-28T08:33:53.266Z,3.30
2023-03-28T08:36:59.774Z,3.42
2023-03-28T08:43:35.686Z,2.88
2023-03-28T08:46:41.059Z,3.00
2023-03-28T08:50:09.667Z,3.00
2023-03-28T08:53:35.352Z,2.75
2023-03-28T09:00:08.774Z,2.50
2023-03-28T09:03:13.631Z,2.70
2023-03-28T09:06:42.721Z,2.33
2023-03-28T09:10:22.194Z,2.58
2023-03-28T09:13:43.900Z,3.30
2023-03-28T09:17:08.462Z,2.92
2023-03-28T09:20:33.901Z,2.78
2023-03-28T09:24:10.930Z,2.63
2023-03-28T09:27:33.039Z,3.00
2023-03-28T09:30:47.522Z,2.92
2023-03-28T09:33:50.295Z,2.83
2023-03-28T09:37:12.663Z,2.80
2023-03-28T09:40:17.840Z,2.60
2023-03-28T09:43:51.252Z,2.90
2023-03-28T09:47:14.584Z,2.22
2023-03-28T09:50:24.902Z,2.63
2023-03-28T09:53:36.947Z,2.40
2023-03-28T09:56:42.036Z,2.80
2023-03-28T09:59:57.911Z,3.10
2023-03-28T10:03:05.021Z,2.40
2023-03-28T10:06:30.953Z,2.80
2023-03-28T10:09:34.854Z,2.90
2023-03-28T10:12:41.544Z,2.92
2023-03-28T10:15:48.183Z,2.63
2023-03-28T10:19:13.900Z,2.47
2023-03-28T10:22:28.152Z,2.42
2023-03-28T10:25:34.929Z,2.20
2023-03-28T10:28:37.311Z,2.95
2023-03-28T10:31:39.559Z,2.70
2023-03-28T10:35:28.003Z,2.70
2023-03-28T10:38:50.303Z,2.42
2023-03-28T10:41:57.043Z,2.83
2023-03-28T10:45:35.609Z,2.50
2023-03-28T10:48:39.359Z,3.38
2023-03-28T10:51:45.748Z,2.40
2023-03-28T10:55:00.687Z,2.53
2023-03-28T10:58:59.444Z,2.15
2023-03-28T11:02:21.709Z,2.78
2023-03-28T11:05:54.857Z,2.63
2023-03-28T11:09:01.920Z,2.70
2023-03-28T11:12:27.861Z,2.25
2023-03-28T11:15:41.315Z,3.13
2023-03-28T11:19:13.074Z,2.35
2023-03-28T11:22:49.836Z,2.65
2023-03-28T11:26:04.277Z,2.20
2023-03-28T11:29:43.007Z,2.63
2023-03-28T11:33:02.663Z,2.65
2023-03-28T11:36:14.591Z,2.60
2023-03-28T11:39:25.627Z,2.00
2023-03-28T11:42:37.835Z,2.75
2023-03-28T11:45:51.955Z,2.72
2023-03-28T11:49:18.640Z,3.05
2023-03-28T11:52:25.623Z,2.60
2023-03-28T11:55:34.390Z,2.60
2023-03-28T11:58:46.405Z,2.67
2023-03-28T12:01:53.954Z,2.40
2023-03-28T12:05:05.480Z,3.10
2023-03-28T12:08:20.352Z,2.53
2023-03-28T12:11:31.755Z,2.40
2023-03-28T12:15:17.150Z,2.42
2023-03-28T12:18:41.304Z,2.47
2023-03-28T12:21:54.186Z,2.25
2023-03-28T12:25:13.233Z,2.53
2023-03-28T12:28:35.780Z,2.35
2023-03-28T12:31:47.655Z,1.92
2023-03-28T12:34:59.184Z,2.70
2023-03-28T12:38:24.345Z,2.40
2023-03-28T12:41:40.210Z,2.75
2023-03-28T12:44:51.989Z,1.95
2023-03-28T12:47:56.709Z,2.58
2023-03-28T12:51:04.046Z,2.47
2023-03-28T12:54:16.584Z,2.85
2023-03-28T12:57:40.906Z,2.47
2023-03-28T13:01:21.840Z,3.00
2023-03-28T13:05:04.143Z,2.55
2023-03-28T13:08:24.139Z,2.47
2023-03-28T13:11:54.304Z,2.53
2023-03-28T13:15:14.399Z,2.75
2023-03-28T13:18:20.131Z,2.75
2023-03-28T13:21:46.411Z,2.67
2023-03-28T13:24:48.449Z,2.40
2023-03-28T13:28:00.470Z,2.10
2023-03-28T13:31:06.877Z,2.60
2023-03-28T13:34:22.839Z,2.60
2023-03-28T13:37:42.705Z,2.60
2023-03-28T13:40:50.835Z,2.40
2023-03-28T13:43:56.906Z,2.28
2023-03-28T13:46:58.556Z,3.08
2023-03-28T13:50:06.117Z,2.45
2023-03-28T13:53:08.088Z,2.70
2023-03-28T13:56:18.604Z,2.60
2023-03-28T13:59:26.246Z,2.28
2023-03-28T14:02:32.925Z,1.98
2023-03-28T14:05:35.433Z,2.92
2023-03-28T14:08:37.023Z,2.50
2023-03-28T14:11:38.755Z,2.78
2023-03-28T14:14:50.230Z,2.80
2023-03-28T14:17:51.977Z,2.97
2023-03-28T14:20:55.878Z,2.70
2023-03-28T14:24:07.540Z,3.17
2023-03-28T14:27:15.085Z,2.80
2023-03-28T14:30:18.806Z,2.53
2023-03-28T14:33:21.183Z,3.03
2023-03-28T14:36:22.759Z,3.10
2023-03-28T14:39:26.568Z,3.28
2023-03-28T14:42:28.593Z,3.20
2023-03-28T14:45:34.019Z,3.00
2023-03-28T14:48:38.091Z,2.95
2023-03-28T14:54:47.184Z,2.75
2023-03-28T14:57:52.039Z,3.28
2023-03-28T15:01:01.975Z,3.03
2023-03-28T15:04:06.572Z,3.17
2023-03-28T15:07:21.079Z,3.17
2023-03-28T15:10:25.521Z,3.42
2023-03-28T15:13:36.230Z,3.15
2023-03-28T15:16:40.771Z,3.20
2023-03-28T15:19:42.641Z,3.58
2023-03-28T15:22:48.577Z,3.10
2023-03-28T15:25:52.021Z,3.33
2023-03-28T15:28:55.859Z,3.20
2023-03-28T15:32:02.871Z,3.60
2023-03-28T15:35:19.990Z,3.05
2023-03-28T15:38:25.720Z,3.22
2023-03-28T15:41:38.999Z,3.50
2023-03-28T15:44:41.426Z,3.38
2023-03-28T15:47:43.289Z,3.10
2023-03-28T15:50:50.405Z,3.60
2023-03-28T15:53:52.194Z,3.45
2023-03-28T15:56:56.376Z,3.63
2023-03-28T16:00:00.137Z,3.63
2023-03-28T16:03:20.157Z,3.58
2023-03-28T16:06:31.893Z,3.50
2023-03-28T16:09:34.830Z,3.42
2023-03-28T16:12:36.726Z,3.30
2023-03-28T16:16:01.106Z,3.28
2023-03-28T16:19:27.394Z,3.25
2023-03-28T16:22:28.972Z,3.25
2023-03-28T16:25:30.602Z,3.13
2023-03-28T16:28:32.467Z,3.20
2023-03-28T16:31:34.147Z,3.00
2023-03-28T16:34:35.698Z,3.50
2023-03-28T16:37:37.768Z,3.63
2023-03-28T16:40:39.545Z,3.47
2023-03-28T16:43:41.094Z,3.33
2023-03-28T16:46:42.731Z,3.03
2023-03-28T16:49:44.377Z,3.38
2023-03-28T16:52:45.907Z,3.83
2023-03-28T16:55:48.309Z,3.63
2023-03-28T16:58:50.052Z,3.85
2023-03-28T17:01:52.124Z,3.25
2023-03-28T17:04:53.700Z,4.18
2023-03-28T17:07:55.192Z,3.67
2023-03-28T17:10:56.712Z,3.60
2023-03-28T17:13:59.041Z,3.80
2023-03-28T17:17:01.474Z,4.93
2023-03-28T17:20:03.231Z,3.70
2023-03-28T17:23:04.722Z,3.88
2023-03-28T17:26:08.604Z,3.50
2023-03-28T17:29:11.917Z,3.78
2023-03-28T17:32:13.729Z,3.22
2023-03-28T17:35:16.805Z,3.92
2023-03-28T17:38:18.327Z,4.10
2023-03-28T17:41:22.984Z,4.10
2023-03-28T17:44:24.730Z,12.23
2023-03-28T17:47:26.342Z,10.95
2023-03-28T17:50:28.309Z,16.92
2023-03-28T17:53:29.788Z,8.18
2023-03-28T17:56:31.333Z,6.03
2023-03-28T17:59:32.921Z,5.82
2023-03-28T18:02:34.727Z,5.55
2023-03-28T18:05:50.029Z,5.05
2023-03-28T18:08:51.506Z,5.90
2023-03-28T18:11:53.180Z,13.68
2023-03-28T18:14:54.674Z,14.75
2023-03-28T18:17:56.557Z,6.75
2023-03-28T18:20:58.383Z,5.85
2023-03-28T18:23:59.810Z,4.70
2023-03-28T18:27:01.550Z,4.55
2023-03-28T18:30:06.508Z,4.35
2023-03-28T18:33:08.006Z,5.18
2023-03-28T18:36:10.538Z,5.30
2023-03-28T18:39:12.395Z,5.68
2023-03-28T18:42:13.970Z,5.05
2023-03-28T18:45:15.863Z,5.10
2023-03-28T18:48:18.547Z,5.13
2023-03-28T18:51:20.911Z,5.78
2023-03-28T18:54:25.888Z,6.45
2023-03-28T18:57:27.634Z,6.80
2023-03-28T19:00:29.670Z,6.38
2023-03-28T19:03:40.266Z,5.45
2023-03-28T19:06:42.018Z,5.70
2023-03-28T19:09:44.365Z,5.45
2023-03-28T19:12:46.104Z,4.63
2023-03-28T19:15:47.590Z,4.53
2023-03-28T19:18:49.137Z,4.75
2023-03-28T19:21:55.341Z,4.55
2023-03-28T19:25:06.438Z,4.53
2023-03-28T19:28:08.030Z,4.10
2023-03-28T19:31:11.794Z,4.40
2023-03-28T19:34:16.850Z,4.80
2023-03-28T19:37:19.330Z,3.88
2023-03-28T19:40:20.831Z,5.13
2023-03-28T19:43:23.881Z,4.38
2023-03-28T19:46:33.273Z,4.00
2023-03-28T19:49:36.384Z,3.70
2023-03-28T19:52:42.558Z,3.40
2023-03-28T19:55:51.139Z,3.80
2023-03-28T19:58:52.874Z,3.78
2023-03-28T20:01:54.444Z,4.00
2023-03-28T20:04:56.004Z,5.10
2023-03-28T20:07:57.702Z,5.10
2023-03-28T20:10:59.438Z,3.97
2023-03-28T20:14:01.058Z,3.45
2023-03-28T20:17:03.853Z,3.97
2023-03-28T20:20:06.964Z,3.72
2023-03-28T20:23:09.131Z,6.63
2023-03-28T20:26:18.815Z,5.18
2023-03-28T20:29:20.370Z,4.30
2023-03-28T20:32:21.916Z,4.00
2023-03-28T20:35:23.891Z,4.20
2023-03-28T20:38:26.189Z,4.75
2023-03-28T20:41:29.727Z,4.32
2023-03-28T20:44:38.031Z,4.95
2023-03-28T20:47:41.221Z,4.18
2023-03-28T20:50:46.661Z,3.70
2023-03-28T20:53:50.829Z,4.00
2023-03-28T20:59:55.293Z,3.53
2023-03-28T21:02:56.790Z,4.00
2023-03-28T21:05:58.288Z,4.45
2023-03-28T21:09:01.746Z,4.25
2023-03-28T21:12:03.468Z,4.38
2023-03-28T21:15:05.951Z,3.67
2023-03-28T21:18:09.604Z,3.80
2023-03-28T21:21:13.488Z,4.10
2023-03-28T21:24:14.888Z,3.97
2023-03-28T21:27:19.261Z,3.80
2023-03-28T21:30:20.929Z,4.07
2023-03-28T21:33:22.489Z,4.05
2023-03-28T21:36:25.435Z,5.32
2023-03-28T21:39:27.688Z,3.97
2023-03-28T21:42:29.169Z,4.57
2023-03-28T21:45:30.651Z,3.65
2023-03-28T21:48:32.222Z,3.38
2023-03-28T21:51:33.993Z,2.70
2023-03-28T21:54:35.628Z,3.78
2023-03-28T21:57:37.084Z,3.05
2023-03-28T22:00:38.941Z,2.85
2023-03-28T22:03:40.674Z,3.08
2023-03-28T22:06:42.271Z,3.10
2023-03-28T22:09:44.571Z,2.90
2023-03-28T22:12:46.476Z,3.25
2023-03-28T22:15:48.099Z,2.83
2023-03-28T22:18:50.106Z,2.90
2023-03-28T22:21:51.916Z,2.72
2023-03-28T22:24:58.489Z,2.50
2023-03-28T22:28:01.340Z,2.47
2023-03-28T22:31:03.175Z,2.30
2023-03-28T22:34:05.088Z,3.00
2023-03-28T22:37:07.009Z,2.67
2023-03-28T22:40:10.852Z,2.85
2023-03-28T22:43:12.308Z,2.40
2023-03-28T22:46:16.253Z,3.25
2023-03-28T22:52:26.159Z,2.80
2023-03-28T22:58:30.158Z,2.38
2023-03-28T23:01:31.723Z,2.30
2023-03-28T23:04:33.203Z,2.10
2023-03-28T23:07:35.930Z,2.30
2023-03-28T23:10:37.962Z,2.22
2023-03-28T23:13:39.412Z,2.15
2023-03-28T23:16:40.996Z,2.13
2023-03-28T23:19:42.513Z,2.33
2023-03-28T23:22:46.295Z,2.10
2023-03-28T23:25:47.833Z,2.63
2023-03-28T23:28:49.332Z,1.70
2023-03-28T23:31:51.132Z,2.28
2023-03-28T23:38:09.014Z,2.88
2023-03-28T23:41:11.146Z,2.58
2023-03-28T23:44:12.666Z,2.60
2023-03-28T23:47:14.719Z,2.33
2023-03-28T23:50:16.441Z,2.13
2023-03-28T23:53:17.978Z,2.13
2023-03-28T23:56:19.426Z,2.00
2023-03-28T23:59:21.762Z,2.00
